sensor_id;sensor_type;location;lat;lon;timestamp;P1;durP1;ratioP1;P2;durP2;ratioP2
26201;SDS011;13944;28.562;77.188;2023-03-11T00:00:50;251.57;;;150.60;;
26201;SDS011;13944;28.562;77.188;2023-03-11T00:03:17;259.40;;;150.23;;
26201;SDS011;13944;28.562;77.188;2023-03-11T00:05:47;252.80;;;150.60;;
26201;SDS011;13944;28.562;77.188;2023-03-11T00:08:16;268.00;;;154.83;;
26201;SDS011;13944;28.562;77.188;2023-03-11T00:10:43;264.53;;;152.40;;
26201;SDS011;13944;28.562;77.188;2023-03-11T00:13:11;256.23;;;156.57;;
26201;SDS011;13944;28.562;77.188;2023-03-11T00:15:39;254.50;;;153.53;;
26201;SDS011;13944;28.562;77.188;2023-03-11T00:18:07;264.27;;;153.10;;
26201;SDS011;13944;28.562;77.188;2023-03-11T00:20:35;267.07;;;153.67;;
26201;SDS011;13944;28.562;77.188;2023-03-11T00:23:03;259.10;;;153.50;;
26201;SDS011;13944;28.562;77.188;2023-03-11T00:25:31;266.93;;;158.73;;
26201;SDS011;13944;28.562;77.188;2023-03-11T00:27:58;250.90;;;148.97;;
26201;SDS011;13944;28.562;77.188;2023-03-11T00:30:26;263.00;;;151.77;;
26201;SDS011;13944;28.562;77.188;2023-03-11T00:32:54;260.20;;;154.37;;
26201;SDS011;13944;28.562;77.188;2023-03-11T00:35:22;263.70;;;154.17;;
26201;SDS011;13944;28.562;77.188;2023-03-11T00:37:51;269.23;;;154.93;;
26201;SDS011;13944;28.562;77.188;2023-03-11T00:40:19;266.20;;;155.30;;
26201;SDS011;13944;28.562;77.188;2023-03-11T00:42:46;271.63;;;158.57;;
26201;SDS011;13944;28.562;77.188;2023-03-11T00:45:14;267.17;;;154.37;;
26201;SDS011;13944;28.562;77.188;2023-03-11T00:47:41;258.43;;;153.23;;
26201;SDS011;13944;28.562;77.188;2023-03-11T00:50:08;265.90;;;155.83;;
26201;SDS011;13944;28.562;77.188;2023-03-11T00:52:39;261.17;;;154.90;;
26201;SDS011;13944;28.562;77.188;2023-03-11T00:55:06;264.83;;;159.00;;
26201;SDS011;13944;28.562;77.188;2023-03-11T00:57:33;250.90;;;153.77;;
26201;SDS011;13944;28.562;77.188;2023-03-11T01:00:00;262.13;;;156.57;;
26201;SDS011;13944;28.562;77.188;2023-03-11T01:02:28;262.23;;;158.67;;
26201;SDS011;13944;28.562;77.188;2023-03-11T01:04:56;264.00;;;151.80;;
26201;SDS011;13944;28.562;77.188;2023-03-11T01:07:23;259.37;;;155.40;;
26201;SDS011;13944;28.562;77.188;2023-03-11T01:09:50;252.33;;;155.20;;
26201;SDS011;13944;28.562;77.188;2023-03-11T01:12:17;251.40;;;151.50;;
26201;SDS011;13944;28.562;77.188;2023-03-11T01:14:44;252.07;;;155.57;;
26201;SDS011;13944;28.562;77.188;2023-03-11T01:17:11;258.67;;;154.27;;
26201;SDS011;13944;28.562;77.188;2023-03-11T01:19:38;261.80;;;155.67;;
26201;SDS011;13944;28.562;77.188;2023-03-11T01:22:05;261.87;;;155.63;;
26201;SDS011;13944;28.562;77.188;2023-03-11T01:24:32;259.80;;;152.57;;
26201;SDS011;13944;28.562;77.188;2023-03-11T01:26:58;283.03;;;157.33;;
26201;SDS011;13944;28.562;77.188;2023-03-11T01:29:26;264.77;;;156.87;;
26201;SDS011;13944;28.562;77.188;2023-03-11T01:31:53;274.50;;;150.50;;
26201;SDS011;13944;28.562;77.188;2023-03-11T01:34:20;264.50;;;154.43;;
26201;SDS011;13944;28.562;77.188;2023-03-11T01:36:47;260.00;;;154.97;;
26201;SDS011;13944;28.562;77.188;2023-03-11T01:39:14;246.70;;;148.60;;
26201;SDS011;13944;28.562;77.188;2023-03-11T01:41:41;271.17;;;156.97;;
26201;SDS011;13944;28.562;77.188;2023-03-11T01:44:10;268.53;;;160.70;;
26201;SDS011;13944;28.562;77.188;2023-03-11T01:49:22;278.53;;;158.50;;
26201;SDS011;13944;28.562;77.188;2023-03-11T01:51:51;277.53;;;157.73;;
26201;SDS011;13944;28.562;77.188;2023-03-11T01:56:46;274.47;;;162.47;;
26201;SDS011;13944;28.562;77.188;2023-03-11T01:59:15;269.70;;;159.00;;
26201;SDS011;13944;28.562;77.188;2023-03-11T02:04:29;264.87;;;162.23;;
26201;SDS011;13944;28.562;77.188;2023-03-11T02:06:59;270.20;;;165.93;;
26201;SDS011;13944;28.562;77.188;2023-03-11T02:09:27;271.63;;;164.90;;
26201;SDS011;13944;28.562;77.188;2023-03-11T02:11:54;264.93;;;162.00;;
26201;SDS011;13944;28.562;77.188;2023-03-11T02:14:22;272.40;;;170.00;;
26201;SDS011;13944;28.562;77.188;2023-03-11T02:16:49;270.00;;;166.20;;
26201;SDS011;13944;28.562;77.188;2023-03-11T02:19:19;277.17;;;164.43;;
26201;SDS011;13944;28.562;77.188;2023-03-11T02:21:47;261.10;;;164.87;;
26201;SDS011;13944;28.562;77.188;2023-03-11T02:29:21;258.77;;;159.77;;
26201;SDS011;13944;28.562;77.188;2023-03-11T02:31:48;252.90;;;160.87;;
26201;SDS011;13944;28.562;77.188;2023-03-11T02:34:19;263.90;;;162.80;;
26201;SDS011;13944;28.562;77.188;2023-03-11T02:36:47;260.53;;;159.90;;
26201;SDS011;13944;28.562;77.188;2023-03-11T02:39:14;237.30;;;151.80;;
26201;SDS011;13944;28.562;77.188;2023-03-11T02:41:43;247.83;;;152.23;;
26201;SDS011;13944;28.562;77.188;2023-03-11T02:44:12;228.67;;;147.63;;
26201;SDS011;13944;28.562;77.188;2023-03-11T02:46:40;231.00;;;148.87;;
26201;SDS011;13944;28.562;77.188;2023-03-11T02:49:08;221.10;;;140.97;;
26201;SDS011;13944;28.562;77.188;2023-03-11T02:51:35;236.83;;;147.40;;
26201;SDS011;13944;28.562;77.188;2023-03-11T02:54:03;214.60;;;137.37;;
26201;SDS011;13944;28.562;77.188;2023-03-11T02:56:30;209.23;;;138.13;;
26201;SDS011;13944;28.562;77.188;2023-03-11T02:58:58;224.27;;;136.17;;
26201;SDS011;13944;28.562;77.188;2023-03-11T03:01:25;204.85;;;131.93;;
26201;SDS011;13944;28.562;77.188;2023-03-11T03:03:52;194.07;;;126.40;;
26201;SDS011;13944;28.562;77.188;2023-03-11T03:06:19;196.07;;;124.43;;
26201;SDS011;13944;28.562;77.188;2023-03-11T03:08:46;195.10;;;123.75;;
26201;SDS011;13944;28.562;77.188;2023-03-11T03:11:13;195.43;;;125.38;;
26201;SDS011;13944;28.562;77.188;2023-03-11T03:13:40;177.95;;;121.88;;
26201;SDS011;13944;28.562;77.188;2023-03-11T03:16:07;193.32;;;122.57;;
26201;SDS011;13944;28.562;77.188;2023-03-11T03:18:34;191.30;;;120.78;;
26201;SDS011;13944;28.562;77.188;2023-03-11T03:21:01;192.20;;;123.95;;
26201;SDS011;13944;28.562;77.188;2023-03-11T03:23:28;174.63;;;110.00;;
26201;SDS011;13944;28.562;77.188;2023-03-11T03:26:00;160.90;;;109.13;;
26201;SDS011;13944;28.562;77.188;2023-03-11T03:28:27;152.60;;;101.50;;
26201;SDS011;13944;28.562;77.188;2023-03-11T03:30:54;160.40;;;102.97;;
26201;SDS011;13944;28.562;77.188;2023-03-11T03:33:21;144.20;;;100.68;;
26201;SDS011;13944;28.562;77.188;2023-03-11T03:35:48;135.52;;;94.85;;
26201;SDS011;13944;28.562;77.188;2023-03-11T03:38:15;137.70;;;92.65;;
26201;SDS011;13944;28.562;77.188;2023-03-11T03:40:45;127.50;;;86.95;;
26201;SDS011;13944;28.562;77.188;2023-03-11T03:43:12;112.68;;;81.03;;
26201;SDS011;13944;28.562;77.188;2023-03-11T03:45:39;112.57;;;73.15;;
26201;SDS011;13944;28.562;77.188;2023-03-11T03:48:06;104.38;;;69.43;;
26201;SDS011;13944;28.562;77.188;2023-03-11T03:50:33;98.95;;;65.85;;
26201;SDS011;13944;28.562;77.188;2023-03-11T03:53:00;101.88;;;67.80;;
26201;SDS011;13944;28.562;77.188;2023-03-11T03:55:27;99.45;;;65.10;;
26201;SDS011;13944;28.562;77.188;2023-03-11T03:57:54;90.45;;;61.60;;
26201;SDS011;13944;28.562;77.188;2023-03-11T04:00:21;92.93;;;61.78;;
26201;SDS011;13944;28.562;77.188;2023-03-11T04:02:48;84.28;;;57.28;;
26201;SDS011;13944;28.562;77.188;2023-03-11T04:05:15;91.63;;;57.10;;
26201;SDS011;13944;28.562;77.188;2023-03-11T04:07:42;84.78;;;56.03;;
26201;SDS011;13944;28.562;77.188;2023-03-11T04:10:12;75.13;;;52.90;;
26201;SDS011;13944;28.562;77.188;2023-03-11T04:12:39;70.13;;;52.50;;
26201;SDS011;13944;28.562;77.188;2023-03-11T04:15:06;80.70;;;53.28;;
26201;SDS011;13944;28.562;77.188;2023-03-11T04:17:34;81.97;;;51.05;;
26201;SDS011;13944;28.562;77.188;2023-03-11T04:20:01;86.20;;;51.40;;
26201;SDS011;13944;28.562;77.188;2023-03-11T04:22:28;81.90;;;47.75;;
26201;SDS011;13944;28.562;77.188;2023-03-11T04:24:55;73.82;;;46.08;;
26201;SDS011;13944;28.562;77.188;2023-03-11T04:27:22;69.38;;;46.78;;
26201;SDS011;13944;28.562;77.188;2023-03-11T04:29:49;72.53;;;45.25;;
26201;SDS011;13944;28.562;77.188;2023-03-11T04:32:16;71.25;;;43.58;;
26201;SDS011;13944;28.562;77.188;2023-03-11T04:34:43;59.28;;;43.75;;
26201;SDS011;13944;28.562;77.188;2023-03-11T04:37:10;64.28;;;43.58;;
26201;SDS011;13944;28.562;77.188;2023-03-11T04:39:37;59.33;;;42.53;;
26201;SDS011;13944;28.562;77.188;2023-03-11T04:42:04;73.70;;;46.20;;
26201;SDS011;13944;28.562;77.188;2023-03-11T04:44:33;69.65;;;44.28;;
26201;SDS011;13944;28.562;77.188;2023-03-11T04:47:00;68.28;;;44.47;;
26201;SDS011;13944;28.562;77.188;2023-03-11T04:49:28;69.47;;;43.92;;
26201;SDS011;13944;28.562;77.188;2023-03-11T04:51:55;71.10;;;44.80;;
26201;SDS011;13944;28.562;77.188;2023-03-11T04:54:22;83.00;;;46.55;;
26201;SDS011;13944;28.562;77.188;2023-03-11T04:56:49;68.10;;;44.05;;
26201;SDS011;13944;28.562;77.188;2023-03-11T04:59:16;67.40;;;47.50;;
26201;SDS011;13944;28.562;77.188;2023-03-11T05:01:43;74.22;;;49.65;;
26201;SDS011;13944;28.562;77.188;2023-03-11T05:04:10;85.15;;;52.03;;
26201;SDS011;13944;28.562;77.188;2023-03-11T05:06:37;76.70;;;48.67;;
26201;SDS011;13944;28.562;77.188;2023-03-11T05:09:04;71.32;;;48.53;;
26201;SDS011;13944;28.562;77.188;2023-03-11T05:11:31;76.05;;;51.15;;
26201;SDS011;13944;28.562;77.188;2023-03-11T05:13:58;76.18;;;48.35;;
26201;SDS011;13944;28.562;77.188;2023-03-11T05:16:25;72.03;;;50.55;;
26201;SDS011;13944;28.562;77.188;2023-03-11T05:18:52;72.97;;;48.40;;
26201;SDS011;13944;28.562;77.188;2023-03-11T05:21:19;72.85;;;49.58;;
26201;SDS011;13944;28.562;77.188;2023-03-11T05:23:46;80.65;;;50.40;;
26201;SDS011;13944;28.562;77.188;2023-03-11T05:26:14;75.90;;;51.50;;
26201;SDS011;13944;28.562;77.188;2023-03-11T05:28:41;73.25;;;49.58;;
26201;SDS011;13944;28.562;77.188;2023-03-11T05:31:08;70.85;;;49.47;;
26201;SDS011;13944;28.562;77.188;2023-03-11T05:33:35;69.15;;;49.22;;
26201;SDS011;13944;28.562;77.188;2023-03-11T05:36:04;66.22;;;50.85;;
26201;SDS011;13944;28.562;77.188;2023-03-11T05:38:31;73.03;;;47.95;;
26201;SDS011;13944;28.562;77.188;2023-03-11T05:40:58;73.35;;;49.78;;
26201;SDS011;13944;28.562;77.188;2023-03-11T05:43:25;70.95;;;46.47;;
26201;SDS011;13944;28.562;77.188;2023-03-11T05:45:52;74.18;;;46.50;;
26201;SDS011;13944;28.562;77.188;2023-03-11T05:48:19;65.35;;;44.97;;
26201;SDS011;13944;28.562;77.188;2023-03-11T05:50:46;64.68;;;42.70;;
26201;SDS011;13944;28.562;77.188;2023-03-11T05:53:13;61.22;;;40.85;;
26201;SDS011;13944;28.562;77.188;2023-03-11T05:55:40;65.97;;;41.80;;
26201;SDS011;13944;28.562;77.188;2023-03-11T05:58:07;56.15;;;39.55;;
26201;SDS011;13944;28.562;77.188;2023-03-11T06:00:34;64.90;;;43.85;;
26201;SDS011;13944;28.562;77.188;2023-03-11T06:03:01;66.53;;;43.28;;
26201;SDS011;13944;28.562;77.188;2023-03-11T06:05:28;59.03;;;42.78;;
26201;SDS011;13944;28.562;77.188;2023-03-11T06:07:55;67.35;;;43.40;;
26201;SDS011;13944;28.562;77.188;2023-03-11T06:10:22;69.15;;;41.50;;
26201;SDS011;13944;28.562;77.188;2023-03-11T06:12:49;64.28;;;42.03;;
26201;SDS011;13944;28.562;77.188;2023-03-11T06:15:16;68.75;;;45.00;;
26201;SDS011;13944;28.562;77.188;2023-03-11T06:17:43;64.25;;;44.42;;
26201;SDS011;13944;28.562;77.188;2023-03-11T06:20:10;61.42;;;42.78;;
26201;SDS011;13944;28.562;77.188;2023-03-11T06:22:38;54.13;;;39.60;;
26201;SDS011;13944;28.562;77.188;2023-03-11T06:25:05;52.20;;;36.67;;
26201;SDS011;13944;28.562;77.188;2023-03-11T06:27:32;50.08;;;35.25;;
26201;SDS011;13944;28.562;77.188;2023-03-11T06:29:59;48.97;;;34.53;;
26201;SDS011;13944;28.562;77.188;2023-03-11T06:32:26;48.00;;;33.75;;
26201;SDS011;13944;28.562;77.188;2023-03-11T06:34:54;57.42;;;35.20;;
26201;SDS011;13944;28.562;77.188;2023-03-11T06:37:21;55.63;;;34.67;;
26201;SDS011;13944;28.562;77.188;2023-03-11T06:39:52;47.97;;;33.25;;
26201;SDS011;13944;28.562;77.188;2023-03-11T06:42:20;48.78;;;33.58;;
26201;SDS011;13944;28.562;77.188;2023-03-11T06:44:51;47.35;;;33.90;;
26201;SDS011;13944;28.562;77.188;2023-03-11T06:47:18;53.90;;;36.03;;
26201;SDS011;13944;28.562;77.188;2023-03-11T06:49:45;59.50;;;36.67;;
26201;SDS011;13944;28.562;77.188;2023-03-11T06:52:12;50.90;;;35.97;;
26201;SDS011;13944;28.562;77.188;2023-03-11T06:54:39;50.42;;;34.28;;
26201;SDS011;13944;28.562;77.188;2023-03-11T06:57:07;46.00;;;30.92;;
26201;SDS011;13944;28.562;77.188;2023-03-11T06:59:34;48.00;;;33.67;;
26201;SDS011;13944;28.562;77.188;2023-03-11T07:02:02;47.35;;;30.60;;
26201;SDS011;13944;28.562;77.188;2023-03-11T07:04:29;47.17;;;32.03;;
26201;SDS011;13944;28.562;77.188;2023-03-11T07:06:56;69.68;;;43.38;;
26201;SDS011;13944;28.562;77.188;2023-03-11T07:09:23;57.50;;;37.78;;
26201;SDS011;13944;28.562;77.188;2023-03-11T07:11:52;49.97;;;33.58;;
26201;SDS011;13944;28.562;77.188;2023-03-11T07:14:19;44.58;;;28.80;;
26201;SDS011;13944;28.562;77.188;2023-03-11T07:16:47;53.40;;;33.58;;
26201;SDS011;13944;28.562;77.188;2023-03-11T07:19:14;47.30;;;30.70;;
26201;SDS011;13944;28.562;77.188;2023-03-11T07:21:41;41.50;;;29.08;;
26201;SDS011;13944;28.562;77.188;2023-03-11T07:24:09;44.40;;;27.52;;
26201;SDS011;13944;28.562;77.188;2023-03-11T07:26:37;55.60;;;27.38;;
26201;SDS011;13944;28.562;77.188;2023-03-11T07:29:04;45.92;;;25.38;;
26201;SDS011;13944;28.562;77.188;2023-03-11T07:31:32;40.65;;;24.48;;
26201;SDS011;13944;28.562;77.188;2023-03-11T07:34:04;38.20;;;23.85;;
26201;SDS011;13944;28.562;77.188;2023-03-11T07:36:36;32.80;;;23.95;;
26201;SDS011;13944;28.562;77.188;2023-03-11T07:39:03;33.03;;;22.10;;
26201;SDS011;13944;28.562;77.188;2023-03-11T07:41:32;34.45;;;23.85;;
26201;SDS011;13944;28.562;77.188;2023-03-11T07:44:00;39.25;;;25.55;;
26201;SDS011;13944;28.562;77.188;2023-03-11T07:46:27;42.30;;;25.85;;
26201;SDS011;13944;28.562;77.188;2023-03-11T07:48:55;47.00;;;26.42;;
26201;SDS011;13944;28.562;77.188;2023-03-11T07:51:23;43.25;;;27.33;;
26201;SDS011;13944;28.562;77.188;2023-03-11T07:53:52;41.83;;;24.58;;
26201;SDS011;13944;28.562;77.188;2023-03-11T07:56:19;26.58;;;17.70;;
26201;SDS011;13944;28.562;77.188;2023-03-11T07:58:48;27.60;;;17.02;;
26201;SDS011;13944;28.562;77.188;2023-03-11T08:01:17;31.58;;;17.40;;
26201;SDS011;13944;28.562;77.188;2023-03-11T08:03:44;27.50;;;16.63;;
26201;SDS011;13944;28.562;77.188;2023-03-11T08:06:13;31.23;;;16.92;;
26201;SDS011;13944;28.562;77.188;2023-03-11T08:08:40;23.30;;;16.52;;
26201;SDS011;13944;28.562;77.188;2023-03-11T08:11:08;22.50;;;16.75;;
26201;SDS011;13944;28.562;77.188;2023-03-11T08:13:35;23.02;;;16.48;;
26201;SDS011;13944;28.562;77.188;2023-03-11T08:16:02;25.40;;;17.70;;
26201;SDS011;13944;28.562;77.188;2023-03-11T08:18:30;25.17;;;18.77;;
26201;SDS011;13944;28.562;77.188;2023-03-11T08:20:57;29.98;;;20.40;;
26201;SDS011;13944;28.562;77.188;2023-03-11T08:23:24;28.92;;;20.67;;
26201;SDS011;13944;28.562;77.188;2023-03-11T08:25:51;29.88;;;20.35;;
26201;SDS011;13944;28.562;77.188;2023-03-11T08:28:18;29.13;;;19.65;;
26201;SDS011;13944;28.562;77.188;2023-03-11T08:30:45;29.10;;;19.70;;
26201;SDS011;13944;28.562;77.188;2023-03-11T08:33:12;32.88;;;20.33;;
26201;SDS011;13944;28.562;77.188;2023-03-11T08:35:39;29.30;;;19.88;;
26201;SDS011;13944;28.562;77.188;2023-03-11T08:38:06;29.13;;;19.00;;
26201;SDS011;13944;28.562;77.188;2023-03-11T08:40:33;27.67;;;20.88;;
26201;SDS011;13944;28.562;77.188;2023-03-11T08:43:00;31.45;;;20.90;;
26201;SDS011;13944;28.562;77.188;2023-03-11T08:45:27;28.85;;;20.42;;
26201;SDS011;13944;28.562;77.188;2023-03-11T08:47:54;31.52;;;20.52;;
26201;SDS011;13944;28.562;77.188;2023-03-11T08:50:21;30.33;;;21.05;;
26201;SDS011;13944;28.562;77.188;2023-03-11T08:52:48;29.05;;;19.88;;
26201;SDS011;13944;28.562;77.188;2023-03-11T08:55:16;27.55;;;18.83;;
26201;SDS011;13944;28.562;77.188;2023-03-11T08:57:50;33.60;;;19.77;;
26201;SDS011;13944;28.562;77.188;2023-03-11T09:00:17;35.75;;;20.10;;
26201;SDS011;13944;28.562;77.188;2023-03-11T09:02:44;34.63;;;19.98;;
26201;SDS011;13944;28.562;77.188;2023-03-11T09:05:12;28.75;;;19.65;;
26201;SDS011;13944;28.562;77.188;2023-03-11T09:07:39;26.65;;;19.05;;
26201;SDS011;13944;28.562;77.188;2023-03-11T09:10:06;32.40;;;20.75;;
26201;SDS011;13944;28.562;77.188;2023-03-11T09:12:33;30.95;;;20.35;;
26201;SDS011;13944;28.562;77.188;2023-03-11T09:15:00;33.05;;;20.75;;
26201;SDS011;13944;28.562;77.188;2023-03-11T09:17:27;33.25;;;21.55;;
26201;SDS011;13944;28.562;77.188;2023-03-11T09:19:54;30.13;;;21.25;;
26201;SDS011;13944;28.562;77.188;2023-03-11T09:22:21;28.27;;;20.02;;
26201;SDS011;13944;28.562;77.188;2023-03-11T09:24:48;28.92;;;18.40;;
26201;SDS011;13944;28.562;77.188;2023-03-11T09:27:15;27.05;;;17.67;;
26201;SDS011;13944;28.562;77.188;2023-03-11T09:29:42;26.77;;;18.40;;
26201;SDS011;13944;28.562;77.188;2023-03-11T09:32:11;31.15;;;18.58;;
26201;SDS011;13944;28.562;77.188;2023-03-11T09:34:38;29.17;;;17.65;;
26201;SDS011;13944;28.562;77.188;2023-03-11T09:37:05;27.20;;;17.17;;
26201;SDS011;13944;28.562;77.188;2023-03-11T09:39:32;26.98;;;17.90;;
26201;SDS011;13944;28.562;77.188;2023-03-11T09:42:44;28.42;;;17.98;;
26201;SDS011;13944;28.562;77.188;2023-03-11T09:45:34;30.42;;;17.13;;
26201;SDS011;13944;28.562;77.188;2023-03-11T09:47:39;27.65;;;16.30;;
26201;SDS011;13944;28.562;77.188;2023-03-11T09:56:10;25.25;;;16.70;;
26201;SDS011;13944;28.562;77.188;2023-03-11T09:58:45;27.08;;;17.17;;
26201;SDS011;13944;28.562;77.188;2023-03-11T10:01:17;28.10;;;17.23;;
26201;SDS011;13944;28.562;77.188;2023-03-11T10:03:45;23.00;;;16.48;;
26201;SDS011;13944;28.562;77.188;2023-03-11T10:06:19;29.20;;;16.83;;
26201;SDS011;13944;28.562;77.188;2023-03-11T10:17:35;28.27;;;18.55;;
26201;SDS011;13944;28.562;77.188;2023-03-11T10:22:25;30.83;;;17.98;;
26201;SDS011;13944;28.562;77.188;2023-03-11T10:24:56;31.92;;;17.60;;
26201;SDS011;13944;28.562;77.188;2023-03-11T10:27:27;30.95;;;18.52;;
26201;SDS011;13944;28.562;77.188;2023-03-11T10:30:05;29.05;;;17.48;;
26201;SDS011;13944;28.562;77.188;2023-03-11T10:32:40;30.90;;;18.15;;
26201;SDS011;13944;28.562;77.188;2023-03-11T10:37:47;30.55;;;19.92;;
26201;SDS011;13944;28.562;77.188;2023-03-11T10:40:18;34.40;;;20.42;;
26201;SDS011;13944;28.562;77.188;2023-03-11T10:42:48;29.75;;;19.60;;
26201;SDS011;13944;28.562;77.188;2023-03-11T10:45:16;29.38;;;19.63;;
26201;SDS011;13944;28.562;77.188;2023-03-11T10:47:45;29.02;;;19.08;;
26201;SDS011;13944;28.562;77.188;2023-03-11T10:50:14;31.17;;;20.27;;
26201;SDS011;13944;28.562;77.188;2023-03-11T10:55:27;30.05;;;18.85;;
26201;SDS011;13944;28.562;77.188;2023-03-11T10:58:05;33.00;;;20.48;;
26201;SDS011;13944;28.562;77.188;2023-03-11T11:00:32;33.05;;;19.92;;
26201;SDS011;13944;28.562;77.188;2023-03-11T11:02:59;31.67;;;19.98;;
26201;SDS011;13944;28.562;77.188;2023-03-11T11:08:08;30.25;;;18.92;;
26201;SDS011;13944;28.562;77.188;2023-03-11T11:10:47;25.88;;;18.58;;
26201;SDS011;13944;28.562;77.188;2023-03-11T11:13:35;28.92;;;18.05;;
26201;SDS011;13944;28.562;77.188;2023-03-11T11:21:14;30.42;;;18.17;;
26201;SDS011;13944;28.562;77.188;2023-03-11T11:23:45;31.67;;;18.85;;
26201;SDS011;13944;28.562;77.188;2023-03-11T11:26:16;33.05;;;19.58;;
26201;SDS011;13944;28.562;77.188;2023-03-11T11:28:44;36.92;;;19.90;;
26201;SDS011;13944;28.562;77.188;2023-03-11T11:31:19;32.17;;;18.98;;
26201;SDS011;13944;28.562;77.188;2023-03-11T11:33:49;35.13;;;18.83;;
26201;SDS011;13944;28.562;77.188;2023-03-11T11:36:17;28.95;;;19.02;;
26201;SDS011;13944;28.562;77.188;2023-03-11T11:38:44;28.50;;;18.35;;
26201;SDS011;13944;28.562;77.188;2023-03-11T11:41:12;32.45;;;18.02;;
26201;SDS011;13944;28.562;77.188;2023-03-11T11:44:00;30.80;;;18.98;;
26201;SDS011;13944;28.562;77.188;2023-03-11T11:46:51;27.60;;;18.08;;
26201;SDS011;13944;28.562;77.188;2023-03-11T11:49:17;28.65;;;18.83;;
26201;SDS011;13944;28.562;77.188;2023-03-11T11:51:47;26.02;;;18.80;;
26201;SDS011;13944;28.562;77.188;2023-03-11T11:54:17;34.90;;;19.25;;
26201;SDS011;13944;28.562;77.188;2023-03-11T11:56:48;32.47;;;19.10;;
26201;SDS011;13944;28.562;77.188;2023-03-11T11:59:16;28.48;;;18.13;;
26201;SDS011;13944;28.562;77.188;2023-03-11T12:01:47;29.85;;;17.55;;
26201;SDS011;13944;28.562;77.188;2023-03-11T12:09:29;28.65;;;17.38;;
26201;SDS011;13944;28.562;77.188;2023-03-11T12:17:15;32.67;;;19.50;;
26201;SDS011;13944;28.562;77.188;2023-03-11T12:30:55;33.65;;;19.02;;
26201;SDS011;13944;28.562;77.188;2023-03-11T12:35:54;39.40;;;20.23;;
26201;SDS011;13944;28.562;77.188;2023-03-11T12:46:11;35.55;;;21.02;;
26201;SDS011;13944;28.562;77.188;2023-03-11T12:48:43;36.20;;;20.33;;
26201;SDS011;13944;28.562;77.188;2023-03-11T12:53:53;47.08;;;23.00;;
26201;SDS011;13944;28.562;77.188;2023-03-11T13:09:25;57.22;;;23.92;;
26201;SDS011;13944;28.562;77.188;2023-03-11T13:11:52;50.78;;;24.83;;
26201;SDS011;13944;28.562;77.188;2023-03-11T13:14:21;52.90;;;26.55;;
26201;SDS011;13944;28.562;77.188;2023-03-11T13:16:49;50.65;;;26.67;;
26201;SDS011;13944;28.562;77.188;2023-03-11T13:21:49;58.90;;;28.10;;
26201;SDS011;13944;28.562;77.188;2023-03-11T13:27:01;66.40;;;30.05;;
26201;SDS011;13944;28.562;77.188;2023-03-11T13:39:53;62.97;;;32.83;;
26201;SDS011;13944;28.562;77.188;2023-03-11T13:44:49;76.97;;;33.97;;
26201;SDS011;13944;28.562;77.188;2023-03-11T13:47:17;68.28;;;34.53;;
26201;SDS011;13944;28.562;77.188;2023-03-11T13:52:16;75.53;;;36.20;;
26201;SDS011;13944;28.562;77.188;2023-03-11T13:54:46;81.65;;;37.58;;
26201;SDS011;13944;28.562;77.188;2023-03-11T13:57:27;81.53;;;39.15;;
26201;SDS011;13944;28.562;77.188;2023-03-11T13:59:54;101.03;;;41.00;;
26201;SDS011;13944;28.562;77.188;2023-03-11T14:02:23;92.15;;;40.13;;
26201;SDS011;13944;28.562;77.188;2023-03-11T14:04:57;110.93;;;42.45;;
26201;SDS011;13944;28.562;77.188;2023-03-11T14:07:29;97.85;;;42.15;;
26201;SDS011;13944;28.562;77.188;2023-03-11T14:12:37;121.40;;;45.72;;
26201;SDS011;13944;28.562;77.188;2023-03-11T14:15:06;101.72;;;45.55;;
26201;SDS011;13944;28.562;77.188;2023-03-11T14:17:34;117.00;;;47.25;;
26201;SDS011;13944;28.562;77.188;2023-03-11T14:20:05;110.40;;;46.13;;
26201;SDS011;13944;28.562;77.188;2023-03-11T14:22:32;120.35;;;46.97;;
26201;SDS011;13944;28.562;77.188;2023-03-11T14:25:00;107.85;;;48.35;;
26201;SDS011;13944;28.562;77.188;2023-03-11T14:27:27;113.90;;;48.17;;
26201;SDS011;13944;28.562;77.188;2023-03-11T14:29:54;112.93;;;48.78;;
26201;SDS011;13944;28.562;77.188;2023-03-11T14:34:48;101.50;;;47.60;;
26201;SDS011;13944;28.562;77.188;2023-03-11T14:37:26;108.20;;;48.30;;
26201;SDS011;13944;28.562;77.188;2023-03-11T14:39:56;107.10;;;47.47;;
26201;SDS011;13944;28.562;77.188;2023-03-11T14:47:46;100.70;;;45.95;;
26201;SDS011;13944;28.562;77.188;2023-03-11T14:50:16;102.57;;;45.28;;
26201;SDS011;13944;28.562;77.188;2023-03-11T14:52:51;110.85;;;45.83;;
26201;SDS011;13944;28.562;77.188;2023-03-11T14:55:31;97.32;;;44.65;;
26201;SDS011;13944;28.562;77.188;2023-03-11T14:58:01;90.55;;;43.38;;
26201;SDS011;13944;28.562;77.188;2023-03-11T15:00:31;87.03;;;44.80;;
26201;SDS011;13944;28.562;77.188;2023-03-11T15:08:20;95.40;;;47.47;;
26201;SDS011;13944;28.562;77.188;2023-03-11T15:11:34;95.72;;;46.58;;
26201;SDS011;13944;28.562;77.188;2023-03-11T15:13:35;99.63;;;47.85;;
26201;SDS011;13944;28.562;77.188;2023-03-11T15:16:18;96.15;;;49.55;;
26201;SDS011;13944;28.562;77.188;2023-03-11T15:18:46;99.75;;;50.20;;
26201;SDS011;13944;28.562;77.188;2023-03-11T15:21:14;105.22;;;53.10;;
26201;SDS011;13944;28.562;77.188;2023-03-11T15:26:23;115.07;;;59.72;;
26201;SDS011;13944;28.562;77.188;2023-03-11T15:29:01;125.38;;;61.58;;
26201;SDS011;13944;28.562;77.188;2023-03-11T15:31:30;121.03;;;61.83;;
26201;SDS011;13944;28.562;77.188;2023-03-11T15:34:08;122.68;;;60.85;;
26201;SDS011;13944;28.562;77.188;2023-03-11T15:36:36;114.05;;;60.95;;
26201;SDS011;13944;28.562;77.188;2023-03-11T15:39:11;113.07;;;58.85;;
26201;SDS011;13944;28.562;77.188;2023-03-11T15:41:46;120.25;;;58.90;;
26201;SDS011;13944;28.562;77.188;2023-03-11T15:46:52;113.05;;;60.05;;
26201;SDS011;13944;28.562;77.188;2023-03-11T15:49:19;124.88;;;59.75;;
26201;SDS011;13944;28.562;77.188;2023-03-11T15:51:46;101.70;;;58.17;;
26201;SDS011;13944;28.562;77.188;2023-03-11T15:54:13;118.97;;;58.67;;
26201;SDS011;13944;28.562;77.188;2023-03-11T15:56:40;104.38;;;59.20;;
26201;SDS011;13944;28.562;77.188;2023-03-11T15:59:14;130.95;;;57.85;;
26201;SDS011;13944;28.562;77.188;2023-03-11T16:01:42;116.05;;;57.85;;
26201;SDS011;13944;28.562;77.188;2023-03-11T16:04:12;111.07;;;55.33;;
26201;SDS011;13944;28.562;77.188;2023-03-11T16:06:40;107.47;;;57.03;;
26201;SDS011;13944;28.562;77.188;2023-03-11T16:09:07;102.80;;;54.45;;
26201;SDS011;13944;28.562;77.188;2023-03-11T16:11:35;100.22;;;53.42;;
26201;SDS011;13944;28.562;77.188;2023-03-11T16:14:02;109.18;;;54.22;;
26201;SDS011;13944;28.562;77.188;2023-03-11T16:16:30;113.28;;;55.67;;
26201;SDS011;13944;28.562;77.188;2023-03-11T16:18:57;111.80;;;53.95;;
26201;SDS011;13944;28.562;77.188;2023-03-11T16:21:26;110.75;;;53.38;;